createdAt,value
2023-01-25T00:00:50.574Z,9
2023-01-25T00:01:50.641Z,9
2023-01-25T00:02:50.749Z,8
2023-01-25T00:03:50.613Z,9
2023-01-25T00:04:50.565Z,9
2023-01-25T00:05:50.561Z,9
2023-01-25T00:06:50.615Z,9
2023-01-25T00:07:50.556Z,9
2023-01-25T00:08:50.619Z,9
2023-01-25T00:09:50.562Z,8
2023-01-25T00:10:50.555Z,10
2023-01-25T00:11:50.556Z,8
2023-01-25T00:12:50.562Z,9
2023-01-25T00:13:50.582Z,8
2023-01-25T00:14:50.561Z,9
2023-01-25T00:15:50.854Z,8
2023-01-25T00:16:50.655Z,9
2023-01-25T00:17:50.557Z,9
2023-01-25T00:18:50.581Z,9
2023-01-25T00:19:50.552Z,9
2023-01-25T00:20:50.574Z,9
2023-01-25T00:21:50.554Z,9
2023-01-25T00:22:50.557Z,9
2023-01-25T00:23:50.740Z,8
2023-01-25T00:24:50.560Z,9
2023-01-25T00:25:50.565Z,9
2023-01-25T00:26:50.555Z,10
2023-01-25T00:27:50.555Z,9
2023-01-25T00:28:50.587Z,10
2023-01-25T00:29:50.567Z,8
2023-01-25T00:30:50.588Z,9
2023-01-25T00:31:50.701Z,9
2023-01-25T00:32:50.604Z,8
2023-01-25T00:33:50.575Z,8
2023-01-25T00:34:50.574Z,8
2023-01-25T00:35:50.558Z,9
2023-01-25T00:36:50.563Z,9
2023-01-25T00:37:50.564Z,9
2023-01-25T00:38:50.577Z,8
2023-01-25T00:39:50.573Z,8
2023-01-25T00:40:50.543Z,10
2023-01-25T00:41:50.552Z,9
2023-01-25T00:42:50.553Z,9
2023-01-25T00:43:50.566Z,9
2023-01-25T00:44:50.560Z,9
2023-01-25T00:45:50.675Z,10
2023-01-25T00:46:50.556Z,10
2023-01-25T00:47:50.582Z,9
2023-01-25T00:48:50.596Z,9
2023-01-25T00:49:50.555Z,9
2023-01-25T00:50:50.581Z,9
2023-01-25T00:51:50.570Z,8
2023-01-25T00:52:50.542Z,9
2023-01-25T00:53:50.571Z,9
2023-01-25T00:54:50.575Z,9
2023-01-25T00:55:50.542Z,8
2023-01-25T00:56:50.553Z,9
2023-01-25T00:57:50.551Z,9
2023-01-25T00:58:50.571Z,9
2023-01-25T00:59:50.555Z,8
2023-01-25T01:00:50.583Z,9
2023-01-25T01:01:50.552Z,10
2023-01-25T01:02:50.565Z,8
2023-01-25T01:03:50.585Z,9
2023-01-25T01:04:50.659Z,8
2023-01-25T01:05:50.550Z,9
2023-01-25T01:06:50.547Z,9
2023-01-25T01:07:50.571Z,9
2023-01-25T01:08:50.542Z,10
2023-01-25T01:09:50.556Z,9
2023-01-25T01:10:50.548Z,9
2023-01-25T01:11:50.568Z,8
2023-01-25T01:12:50.548Z,8
2023-01-25T01:13:50.554Z,10
2023-01-25T01:14:50.576Z,9
2023-01-25T01:15:50.573Z,9
2023-01-25T01:16:50.606Z,9
2023-01-25T01:17:50.540Z,9
2023-01-25T01:18:50.561Z,9
2023-01-25T01:19:50.560Z,9
2023-01-25T01:20:50.550Z,9
2023-01-25T01:21:50.572Z,9
2023-01-25T01:22:50.545Z,8
2023-01-25T01:23:50.627Z,9
2023-01-25T01:24:50.587Z,9
2023-01-25T01:25:50.567Z,9
2023-01-25T01:26:50.550Z,8
2023-01-25T01:27:50.552Z,9
2023-01-25T01:28:50.550Z,8
2023-01-25T01:29:50.544Z,9
2023-01-25T01:30:50.561Z,8
2023-01-25T01:31:50.601Z,9
2023-01-25T01:32:50.613Z,8
2023-01-25T01:33:50.559Z,8
2023-01-25T01:34:50.548Z,9
2023-01-25T01:35:50.543Z,10
2023-01-25T01:36:50.547Z,8
2023-01-25T01:37:50.656Z,9
2023-01-25T01:38:50.552Z,10
2023-01-25T01:39:50.540Z,9
2023-01-25T01:40:50.557Z,8
2023-01-25T01:41:50.563Z,9
2023-01-25T01:42:50.547Z,9
2023-01-25T01:43:50.547Z,10
2023-01-25T01:44:50.543Z,10
2023-01-25T01:45:50.658Z,9
2023-01-25T01:46:50.545Z,9
2023-01-25T01:47:50.540Z,9
2023-01-25T01:48:50.542Z,10
2023-01-25T01:49:50.555Z,9
2023-01-25T01:50:50.542Z,9
2023-01-25T01:51:50.539Z,9
2023-01-25T01:52:50.542Z,9
2023-01-25T01:53:50.542Z,9
2023-01-25T01:54:50.558Z,9
2023-01-25T01:55:50.533Z,8
2023-01-25T01:56:50.558Z,9
2023-01-25T01:57:50.555Z,9
2023-01-25T01:58:50.550Z,9
2023-01-25T01:59:50.560Z,9
2023-01-25T02:00:50.553Z,10
2023-01-25T02:01:50.536Z,10
2023-01-25T02:02:50.616Z,9
2023-01-25T02:03:50.541Z,9
2023-01-25T02:04:50.573Z,9
2023-01-25T02:05:50.528Z,9
2023-01-25T02:06:50.559Z,9
2023-01-25T02:07:50.555Z,10
2023-01-25T02:08:50.578Z,10
2023-01-25T02:09:50.576Z,9
2023-01-25T02:10:50.549Z,9
2023-01-25T02:11:50.547Z,9
2023-01-25T02:12:50.551Z,9
2023-01-25T02:13:50.557Z,10
2023-01-25T02:14:50.547Z,10
2023-01-25T02:15:50.640Z,10
2023-01-25T02:16:50.541Z,10
2023-01-25T02:17:50.540Z,8
2023-01-25T02:18:50.542Z,9
2023-01-25T02:19:50.552Z,9
2023-01-25T02:20:50.543Z,9
2023-01-25T02:21:50.599Z,10
2023-01-25T02:22:50.543Z,8
2023-01-25T02:23:50.594Z,9
2023-01-25T02:24:50.562Z,9
2023-01-25T02:25:50.536Z,9
2023-01-25T02:26:50.539Z,9
2023-01-25T02:27:50.566Z,9
2023-01-25T02:28:50.553Z,9
2023-01-25T02:29:50.551Z,9
2023-01-25T02:30:50.570Z,7
2023-01-25T02:31:50.676Z,8
2023-01-25T02:32:50.539Z,9
2023-01-25T02:33:50.536Z,8
2023-01-25T02:34:50.545Z,8
2023-01-25T02:35:50.532Z,9
2023-01-25T02:36:50.536Z,8
2023-01-25T02:37:50.539Z,10
2023-01-25T02:38:50.529Z,9
2023-01-25T02:39:50.547Z,9
2023-01-25T02:40:50.543Z,9
2023-01-25T02:41:50.526Z,9
2023-01-25T02:42:50.528Z,9
2023-01-25T02:43:50.706Z,8
2023-01-25T02:44:50.546Z,9
2023-01-25T02:45:50.592Z,8
2023-01-25T02:46:50.535Z,8
2023-01-25T02:47:50.538Z,9
2023-01-25T02:48:50.555Z,8
2023-01-25T02:49:50.564Z,8
2023-01-25T02:50:50.540Z,9
2023-01-25T02:51:50.535Z,8
2023-01-25T02:52:50.533Z,8
2023-01-25T02:53:50.528Z,9
2023-01-25T02:54:50.541Z,7
2023-01-25T02:55:50.545Z,7
2023-01-25T02:56:50.539Z,9
2023-01-25T02:57:50.582Z,8
2023-01-25T02:58:50.562Z,8
2023-01-25T02:59:50.550Z,8
2023-01-25T03:00:50.559Z,9
2023-01-25T03:01:50.570Z,8
2023-01-25T03:02:50.601Z,9
2023-01-25T03:03:50.538Z,8
2023-01-25T03:04:50.538Z,8
2023-01-25T03:05:50.521Z,10
2023-01-25T03:06:50.548Z,8
2023-01-25T03:07:50.539Z,8
2023-01-25T03:08:50.529Z,9
2023-01-25T03:09:50.542Z,9
2023-01-25T03:10:50.528Z,8
2023-01-25T03:11:50.530Z,9
2023-01-25T03:12:50.527Z,7
2023-01-25T03:13:50.533Z,8
2023-01-25T03:14:50.546Z,9
2023-01-25T03:15:50.582Z,8
2023-01-25T03:16:50.549Z,9
2023-01-25T03:17:50.603Z,9
2023-01-25T03:18:50.527Z,9
2023-01-25T03:19:50.552Z,7
2023-01-25T03:20:50.536Z,8
2023-01-25T03:21:50.527Z,9
2023-01-25T03:22:50.535Z,8
2023-01-25T03:23:50.540Z,8
2023-01-25T03:24:50.551Z,9
2023-01-25T03:25:50.533Z,7
2023-01-25T03:26:50.531Z,8
2023-01-25T03:27:50.529Z,9
2023-01-25T03:28:50.520Z,8
2023-01-25T03:29:50.581Z,8
2023-01-25T03:30:50.567Z,8
2023-01-25T03:31:50.658Z,8
2023-01-25T03:32:50.532Z,9
2023-01-25T03:33:50.540Z,8
2023-01-25T03:34:50.557Z,9
2023-01-25T03:35:50.564Z,9
2023-01-25T03:36:50.535Z,8
2023-01-25T03:37:50.543Z,9
2023-01-25T03:38:50.543Z,8
2023-01-25T03:39:50.549Z,9
2023-01-25T03:40:50.542Z,8
2023-01-25T03:41:50.529Z,8
2023-01-25T03:42:50.533Z,9
2023-01-25T03:43:50.529Z,8
2023-01-25T03:44:50.547Z,8
2023-01-25T03:45:50.538Z,9
2023-01-25T03:46:50.576Z,8
2023-01-25T03:47:50.529Z,8
2023-01-25T03:48:50.521Z,8
2023-01-25T03:49:50.557Z,8
2023-01-25T03:50:50.527Z,8
2023-01-25T03:51:50.527Z,9
2023-01-25T03:52:50.521Z,8
2023-01-25T03:53:50.516Z,9
2023-01-25T03:54:50.559Z,8
2023-01-25T03:55:51.176Z,8
2023-01-25T03:56:50.527Z,8
2023-01-25T03:57:50.568Z,9
2023-01-25T03:58:50.526Z,8
2023-01-25T03:59:50.565Z,9
2023-01-25T04:00:50.646Z,8
2023-01-25T04:01:50.672Z,9
2023-01-25T04:02:50.533Z,9
2023-01-25T04:03:50.553Z,9
2023-01-25T04:04:50.557Z,8
2023-01-25T04:05:50.520Z,9
2023-01-25T04:06:50.529Z,8
2023-01-25T04:07:50.541Z,9
2023-01-25T04:08:50.526Z,9
2023-01-25T04:09:50.543Z,9
2023-01-25T04:10:50.522Z,7
2023-01-25T04:11:50.521Z,9
2023-01-25T04:12:50.523Z,8
2023-01-25T04:13:50.512Z,7
2023-01-25T04:14:50.536Z,7
2023-01-25T04:15:50.540Z,9
2023-01-25T04:16:50.640Z,7
2023-01-25T04:17:50.530Z,8
2023-01-25T04:18:50.529Z,8
2023-01-25T04:19:50.582Z,9
2023-01-25T04:20:50.525Z,9
2023-01-25T04:21:50.533Z,8
2023-01-25T04:22:50.544Z,8
2023-01-25T04:23:50.589Z,8
2023-01-25T04:24:50.540Z,8
2023-01-25T04:25:50.520Z,8
2023-01-25T04:26:50.520Z,10
2023-01-25T04:27:50.521Z,8
2023-01-25T04:28:50.517Z,8
2023-01-25T04:29:50.531Z,7
2023-01-25T04:30:50.542Z,8
2023-01-25T04:31:50.723Z,9
2023-01-25T04:32:50.615Z,8
2023-01-25T04:33:51.234Z,8
2023-01-25T04:34:50.567Z,8
2023-01-25T04:35:50.523Z,8
2023-01-25T04:36:50.519Z,8
2023-01-25T04:37:50.508Z,7
2023-01-25T04:38:50.510Z,8
2023-01-25T04:39:50.527Z,8
2023-01-25T04:40:50.518Z,8
2023-01-25T04:41:50.526Z,8
2023-01-25T04:42:50.519Z,8
2023-01-25T04:43:50.517Z,8
2023-01-25T04:44:50.528Z,8
2023-01-25T04:45:50.587Z,8
2023-01-25T04:46:50.516Z,8
2023-01-25T04:47:50.513Z,9
2023-01-25T04:48:50.511Z,9
2023-01-25T04:49:50.596Z,8
2023-01-25T04:50:50.517Z,8
2023-01-25T04:51:50.516Z,9
2023-01-25T04:52:50.573Z,9
2023-01-25T04:53:50.545Z,8
2023-01-25T04:54:50.555Z,9
2023-01-25T04:55:50.516Z,9
2023-01-25T04:56:50.512Z,7
2023-01-25T04:57:50.526Z,9
2023-01-25T04:58:50.512Z,8
2023-01-25T04:59:50.535Z,9
2023-01-25T05:00:50.584Z,9
2023-01-25T05:01:50.527Z,8
2023-01-25T05:02:50.565Z,8
2023-01-25T05:03:51.886Z,8
2023-01-25T05:04:50.533Z,9
2023-01-25T05:05:50.514Z,8
2023-01-25T05:06:50.508Z,9
2023-01-25T05:07:50.515Z,7
2023-01-25T05:08:50.534Z,9
2023-01-25T05:09:50.542Z,8
2023-01-25T05:10:50.539Z,8
2023-01-25T05:11:50.523Z,8
2023-01-25T05:12:50.522Z,8
2023-01-25T05:13:50.524Z,8
2023-01-25T05:14:50.533Z,8
2023-01-25T05:15:50.526Z,7
2023-01-25T05:16:50.561Z,9
2023-01-25T05:17:50.524Z,7
2023-01-25T05:18:50.520Z,8
2023-01-25T05:19:50.522Z,8
2023-01-25T05:20:50.508Z,9
2023-01-25T05:21:50.526Z,7
2023-01-25T05:22:50.522Z,7
2023-01-25T05:23:50.550Z,8
2023-01-25T05:24:50.551Z,7
2023-01-25T05:25:50.517Z,8
2023-01-25T05:26:50.583Z,9
2023-01-25T05:27:50.512Z,7
2023-01-25T05:28:50.512Z,8
2023-01-25T05:29:50.558Z,8
2023-01-25T05:30:50.622Z,8
2023-01-25T05:31:50.565Z,8
2023-01-25T05:32:50.552Z,8
2023-01-25T05:33:50.537Z,7
2023-01-25T05:34:50.527Z,8
2023-01-25T05:35:50.513Z,8
2023-01-25T05:36:50.509Z,7
2023-01-25T05:37:50.532Z,9
2023-01-25T05:38:50.554Z,8
2023-01-25T05:39:50.528Z,7
2023-01-25T05:40:50.515Z,8
2023-01-25T05:41:50.658Z,8
2023-01-25T05:42:50.499Z,7
2023-01-25T05:43:50.508Z,7
2023-01-25T05:44:50.547Z,8
2023-01-25T05:45:50.601Z,8
2023-01-25T05:46:50.514Z,8
2023-01-25T05:47:50.518Z,8
2023-01-25T05:48:50.516Z,8
2023-01-25T05:49:50.536Z,9
2023-01-25T05:50:50.521Z,9
2023-01-25T05:51:50.502Z,10
2023-01-25T05:52:50.506Z,9
2023-01-25T05:53:50.504Z,7
2023-01-25T05:54:50.527Z,9
2023-01-25T05:55:50.507Z,9
2023-01-25T05:56:50.511Z,8
2023-01-25T05:57:50.521Z,9
2023-01-25T05:58:50.505Z,8
2023-01-25T05:59:50.533Z,8
2023-01-25T06:00:50.528Z,9
2023-01-25T06:01:50.520Z,8
2023-01-25T06:02:50.657Z,8
2023-01-25T06:03:58.014Z,8
2023-01-25T06:04:50.524Z,9
2023-01-25T06:05:50.512Z,7
2023-01-25T06:06:50.610Z,7
2023-01-25T06:07:50.504Z,9
2023-01-25T06:08:50.510Z,9
2023-01-25T06:09:50.523Z,8
2023-01-25T06:10:50.508Z,9
2023-01-25T06:11:50.543Z,9
2023-01-25T06:12:50.539Z,7
2023-01-25T06:13:50.527Z,8
2023-01-25T06:14:50.518Z,8
2023-01-25T06:15:50.565Z,8
2023-01-25T06:16:50.505Z,7
2023-01-25T06:17:50.508Z,8
2023-01-25T06:18:50.509Z,8
2023-01-25T06:19:50.552Z,7
2023-01-25T06:20:50.509Z,8
2023-01-25T06:21:50.541Z,8
2023-01-25T06:22:50.503Z,8
2023-01-25T06:23:50.540Z,8
2023-01-25T06:24:50.532Z,8
2023-01-25T06:25:50.505Z,9
2023-01-25T06:26:50.502Z,12
2023-01-25T06:27:50.533Z,20
2023-01-25T06:28:52.620Z,13
2023-01-25T06:29:50.512Z,13
2023-01-25T06:30:50.587Z,12
2023-01-25T06:31:50.516Z,11
2023-01-25T06:32:50.597Z,11
2023-01-25T06:33:50.501Z,10
2023-01-25T06:34:50.519Z,10
2023-01-25T06:35:50.496Z,9
2023-01-25T06:36:50.529Z,8
2023-01-25T06:37:50.506Z,10
2023-01-25T06:38:50.515Z,9
2023-01-25T06:39:50.530Z,8
2023-01-25T06:40:50.497Z,9
2023-01-25T06:41:50.492Z,9
2023-01-25T06:42:50.538Z,9
2023-01-25T06:43:50.491Z,9
2023-01-25T06:44:50.517Z,10
2023-01-25T06:45:50.522Z,10
2023-01-25T06:46:50.600Z,9
2023-01-25T06:47:50.498Z,10
2023-01-25T06:48:50.515Z,9
2023-01-25T06:49:50.525Z,9
2023-01-25T06:50:50.528Z,10
2023-01-25T06:51:50.513Z,8
2023-01-25T06:52:50.495Z,9
2023-01-25T06:53:50.515Z,9
2023-01-25T06:54:50.511Z,9
2023-01-25T06:55:50.520Z,8
2023-01-25T06:56:50.493Z,9
2023-01-25T06:57:50.580Z,8
2023-01-25T06:58:50.523Z,8
2023-01-25T06:59:50.523Z,8
2023-01-25T07:00:50.528Z,9
2023-01-25T07:01:50.583Z,9
2023-01-25T07:02:50.575Z,8
2023-01-25T07:04:50.571Z,8
2023-01-25T07:05:50.493Z,8
2023-01-25T07:06:50.518Z,9
2023-01-25T07:07:50.557Z,9
2023-01-25T07:08:50.504Z,8
2023-01-25T07:09:50.589Z,9
2023-01-25T07:10:50.496Z,9
2023-01-25T07:11:50.497Z,9
2023-01-25T07:12:50.503Z,9
2023-01-25T07:13:50.497Z,10
2023-01-25T07:14:50.521Z,8
2023-01-25T07:15:50.535Z,9
2023-01-25T07:16:50.486Z,8
2023-01-25T07:17:50.499Z,9
2023-01-25T07:18:50.495Z,10
2023-01-25T07:19:50.597Z,9
2023-01-25T07:20:50.490Z,9
2023-01-25T07:21:50.522Z,8
2023-01-25T07:22:50.495Z,8
2023-01-25T07:23:50.541Z,10
2023-01-25T07:24:50.572Z,9
2023-01-25T07:25:50.519Z,9
2023-01-25T07:26:50.501Z,8
2023-01-25T07:27:50.500Z,9
2023-01-25T07:28:50.498Z,9
2023-01-25T07:29:50.513Z,9
2023-01-25T07:30:50.527Z,9
2023-01-25T07:31:50.569Z,8
2023-01-25T07:32:50.505Z,9
2023-01-25T07:33:50.513Z,8
2023-01-25T07:34:50.509Z,9
2023-01-25T07:35:50.487Z,9
2023-01-25T07:36:50.498Z,9
2023-01-25T07:37:50.488Z,10
2023-01-25T07:38:50.490Z,9
2023-01-25T07:39:50.628Z,8
2023-01-25T07:40:50.489Z,9
2023-01-25T07:41:50.491Z,9
2023-01-25T07:42:50.491Z,9
2023-01-25T07:43:50.501Z,8
2023-01-25T07:44:50.499Z,10
2023-01-25T07:45:50.499Z,9
2023-01-25T07:46:50.556Z,8
2023-01-25T07:47:50.482Z,10
2023-01-25T07:48:50.492Z,10
2023-01-25T07:49:50.538Z,10
2023-01-25T07:50:50.570Z,8
2023-01-25T07:51:50.502Z,8
2023-01-25T07:52:50.517Z,9
2023-01-25T07:53:50.501Z,8
2023-01-25T07:54:50.489Z,9
2023-01-25T07:55:50.493Z,10
2023-01-25T07:56:50.485Z,9
2023-01-25T07:57:50.504Z,10
2023-01-25T07:58:50.496Z,9
2023-01-25T07:59:50.492Z,10
2023-01-25T08:00:50.552Z,10
2023-01-25T08:01:50.490Z,9
2023-01-25T08:02:50.479Z,9
2023-01-25T08:03:50.514Z,9
2023-01-25T08:04:50.480Z,10
2023-01-25T08:05:50.508Z,8
2023-01-25T08:06:50.495Z,8
2023-01-25T08:07:50.492Z,9
2023-01-25T08:08:50.491Z,9
2023-01-25T08:09:50.487Z,8
2023-01-25T08:10:50.483Z,8
2023-01-25T08:11:50.498Z,8
2023-01-25T08:12:50.480Z,9
2023-01-25T08:13:50.508Z,9
2023-01-25T08:14:50.481Z,9
2023-01-25T08:15:50.505Z,8
2023-01-25T08:16:50.493Z,10
2023-01-25T08:17:50.481Z,20
2023-01-25T08:18:50.486Z,12
2023-01-25T08:19:50.473Z,10
2023-01-25T08:20:50.494Z,9
2023-01-25T08:21:50.493Z,9
2023-01-25T08:22:50.486Z,10
2023-01-25T08:23:50.641Z,8
2023-01-25T08:24:50.492Z,8
2023-01-25T08:25:50.485Z,9
2023-01-25T08:26:50.479Z,10
2023-01-25T08:27:50.481Z,9
2023-01-25T08:28:50.560Z,9
2023-01-25T08:29:50.508Z,9
2023-01-25T08:30:57.329Z,9
2023-01-25T08:31:50.541Z,8
2023-01-25T08:32:50.498Z,10
2023-01-25T08:33:50.483Z,9
2023-01-25T08:34:50.502Z,8
2023-01-25T08:35:50.508Z,9
2023-01-25T08:37:50.490Z,8
2023-01-25T08:38:50.488Z,8
2023-01-25T08:39:50.486Z,8
2023-01-25T08:40:50.512Z,10
2023-01-25T08:41:50.504Z,9
2023-01-25T08:42:50.481Z,9
2023-01-25T08:43:50.496Z,9
2023-01-25T08:44:50.494Z,8
2023-01-25T08:45:50.519Z,8
2023-01-25T08:46:50.497Z,10
2023-01-25T08:47:50.485Z,10
2023-01-25T08:48:50.476Z,8
2023-01-25T08:49:50.500Z,7
2023-01-25T08:50:50.513Z,9
2023-01-25T08:51:50.495Z,8
2023-01-25T08:52:50.505Z,7
2023-01-25T08:53:50.492Z,8
2023-01-25T08:54:50.505Z,9
2023-01-25T08:55:50.488Z,8
2023-01-25T08:56:50.493Z,8
2023-01-25T08:57:50.478Z,9
2023-01-25T08:58:50.523Z,9
2023-01-25T08:59:50.491Z,9
2023-01-25T09:00:50.524Z,8
2023-01-25T09:01:50.500Z,8
2023-01-25T09:02:50.489Z,8
2023-01-25T09:03:50.704Z,8
2023-01-25T09:04:50.486Z,8
2023-01-25T09:05:50.520Z,8
2023-01-25T09:06:50.486Z,9
2023-01-25T09:07:50.476Z,8
2023-01-25T09:08:50.473Z,9
2023-01-25T09:09:50.479Z,7
2023-01-25T09:10:50.516Z,9
2023-01-25T09:11:50.472Z,7
2023-01-25T09:12:50.483Z,8
2023-01-25T09:13:50.495Z,9
2023-01-25T09:14:50.495Z,8
2023-01-25T09:15:50.515Z,8
2023-01-25T09:16:50.478Z,9
2023-01-25T09:17:50.497Z,8
2023-01-25T09:18:50.904Z,9
2023-01-25T09:20:50.480Z,8
2023-01-25T09:21:50.475Z,8
2023-01-25T09:22:50.489Z,9
2023-01-25T09:24:04.455Z,9
2023-01-25T09:24:50.532Z,7
2023-01-25T09:25:50.504Z,10
2023-01-25T09:26:59.376Z,8
2023-01-25T09:27:50.487Z,9
2023-01-25T09:28:50.490Z,9
2023-01-25T09:30:01.548Z,8
2023-01-25T09:31:06.191Z,10
2023-01-25T09:31:50.589Z,9
2023-01-25T09:32:50.706Z,9
2023-01-25T09:33:50.494Z,9
2023-01-25T09:34:50.487Z,7
2023-01-25T09:35:50.487Z,9
2023-01-25T09:36:50.498Z,8
2023-01-25T09:37:50.478Z,9
2023-01-25T09:38:50.472Z,9
2023-01-25T09:39:50.562Z,9
2023-01-25T09:40:50.481Z,8
2023-01-25T09:41:50.489Z,9
2023-01-25T09:42:50.468Z,8
2023-01-25T09:43:50.487Z,9
2023-01-25T09:44:50.469Z,8
2023-01-25T09:45:50.496Z,9
2023-01-25T09:46:50.488Z,8
2023-01-25T09:47:50.475Z,8
2023-01-25T09:48:56.482Z,8
2023-01-25T09:49:50.476Z,10
2023-01-25T09:50:50.484Z,9
2023-01-25T09:51:50.493Z,8
2023-01-25T09:52:50.468Z,9
2023-01-25T09:53:50.487Z,9
2023-01-25T09:54:50.503Z,9
2023-01-25T09:55:50.480Z,9
2023-01-25T09:56:50.520Z,10
2023-01-25T09:57:50.491Z,8
2023-01-25T09:58:50.474Z,10
2023-01-25T09:59:50.533Z,9
2023-01-25T10:00:50.491Z,11
2023-01-25T10:01:50.568Z,10
2023-01-25T10:02:50.496Z,9
2023-01-25T10:03:50.474Z,11
2023-01-25T10:04:50.466Z,9
2023-01-25T10:05:50.473Z,10
2023-01-25T10:07:00.170Z,9
2023-01-25T10:07:50.474Z,9
2023-01-25T10:08:50.475Z,8
2023-01-25T10:09:50.475Z,9
2023-01-25T10:10:50.474Z,8
2023-01-25T10:11:50.533Z,8
2023-01-25T10:12:50.462Z,9
2023-01-25T10:13:50.478Z,9
2023-01-25T10:14:50.474Z,9
2023-01-25T10:15:50.573Z,9
2023-01-25T10:16:50.546Z,9
2023-01-25T10:17:50.487Z,9
2023-01-25T10:18:50.473Z,9
2023-01-25T10:19:50.493Z,9
2023-01-25T10:20:50.474Z,8
2023-01-25T10:21:50.641Z,9
2023-01-25T10:22:50.482Z,8
2023-01-25T10:23:50.497Z,8
2023-01-25T10:24:50.479Z,9
2023-01-25T10:25:50.475Z,10
2023-01-25T10:26:50.479Z,9
2023-01-25T10:27:50.496Z,9
2023-01-25T10:28:50.471Z,10
2023-01-25T10:29:50.456Z,9
2023-01-25T10:30:50.597Z,10
2023-01-25T10:31:50.634Z,9
2023-01-25T10:32:55.835Z,10
2023-01-25T10:33:50.485Z,10
2023-01-25T10:35:08.702Z,8
2023-01-25T10:35:50.479Z,11
2023-01-25T10:36:50.487Z,11
2023-01-25T10:37:50.467Z,9
2023-01-25T10:38:50.483Z,9
2023-01-25T10:39:50.489Z,9
2023-01-25T10:40:50.461Z,10
2023-01-25T10:41:50.515Z,9
2023-01-25T10:42:50.472Z,9
2023-01-25T10:43:50.467Z,8
2023-01-25T10:44:50.472Z,10
2023-01-25T10:45:50.510Z,10
2023-01-25T10:46:50.526Z,8
2023-01-25T10:47:50.462Z,8
2023-01-25T10:48:50.468Z,9
2023-01-25T10:50:50.495Z,9
2023-01-25T10:51:50.480Z,8
2023-01-25T10:52:50.489Z,8
2023-01-25T10:53:50.490Z,9
2023-01-25T10:54:50.464Z,10
2023-01-25T10:55:50.494Z,10
2023-01-25T10:56:50.478Z,8
2023-01-25T10:57:50.488Z,9
2023-01-25T10:58:50.543Z,9
2023-01-25T10:59:50.470Z,8
2023-01-25T11:00:50.474Z,8
2023-01-25T11:01:50.522Z,9
2023-01-25T11:02:50.513Z,9
2023-01-25T11:03:50.475Z,9
2023-01-25T11:04:50.466Z,10
2023-01-25T11:05:50.479Z,9
2023-01-25T11:06:50.504Z,9
2023-01-25T11:07:50.456Z,10
2023-01-25T11:08:50.477Z,9
2023-01-25T11:09:50.465Z,9
2023-01-25T11:10:50.458Z,10
2023-01-25T11:11:50.483Z,9
2023-01-25T11:12:50.452Z,10
2023-01-25T11:13:50.521Z,9
2023-01-25T11:14:50.458Z,9
2023-01-25T11:15:50.507Z,9
2023-01-25T11:16:50.554Z,10
2023-01-25T11:17:51.067Z,9
2023-01-25T11:18:50.454Z,10
2023-01-25T11:19:50.475Z,9
2023-01-25T11:20:50.461Z,10
2023-01-25T11:23:50.509Z,8
2023-01-25T11:24:50.461Z,9
2023-01-25T11:25:50.474Z,9
2023-01-25T11:26:50.455Z,8
2023-01-25T11:27:50.466Z,10
2023-01-25T11:28:50.468Z,9
2023-01-25T11:29:50.500Z,9
2023-01-25T11:30:50.633Z,8
2023-01-25T11:31:50.598Z,9
2023-01-25T11:32:50.475Z,9
2023-01-25T11:33:50.483Z,9
2023-01-25T11:34:50.469Z,9
2023-01-25T11:35:50.444Z,9
2023-01-25T11:36:50.458Z,8
2023-01-25T11:37:50.475Z,9
2023-01-25T11:38:50.463Z,8
2023-01-25T11:39:50.452Z,9
2023-01-25T11:40:50.461Z,10
2023-01-25T11:41:50.499Z,9
2023-01-25T11:42:50.461Z,9
2023-01-25T11:43:50.465Z,10
2023-01-25T11:44:50.464Z,10
2023-01-25T11:45:50.478Z,8
2023-01-25T11:46:50.529Z,9
2023-01-25T11:47:50.465Z,8
2023-01-25T11:48:50.482Z,9
2023-01-25T11:49:50.461Z,8
2023-01-25T11:50:50.471Z,8
2023-01-25T11:51:52.333Z,8
2023-01-25T11:52:50.470Z,9
2023-01-25T11:53:50.451Z,8
2023-01-25T11:54:50.462Z,9
2023-01-25T11:55:50.453Z,9
2023-01-25T11:56:50.482Z,9
2023-01-25T11:57:50.457Z,9
2023-01-25T11:58:50.457Z,9
2023-01-25T11:59:50.450Z,8
2023-01-25T12:00:50.503Z,9
2023-01-25T12:01:50.454Z,9
2023-01-25T12:02:50.499Z,9
2023-01-25T12:03:50.507Z,10
2023-01-25T12:04:50.449Z,12
2023-01-25T12:05:50.464Z,11
2023-01-25T12:06:50.466Z,11
2023-01-25T12:07:50.462Z,9
2023-01-25T12:08:50.467Z,9
2023-01-25T12:09:50.458Z,11
2023-01-25T12:10:50.449Z,9
2023-01-25T12:11:50.451Z,10
2023-01-25T12:12:50.477Z,10
2023-01-25T12:13:50.454Z,9
2023-01-25T12:14:50.461Z,9
2023-01-25T12:15:50.581Z,11
2023-01-25T12:16:50.452Z,12
2023-01-25T12:17:50.452Z,10
2023-01-25T12:18:50.461Z,12
2023-01-25T12:19:50.462Z,12
2023-01-25T12:20:50.444Z,12
2023-01-25T12:21:50.594Z,10
2023-01-25T12:22:50.624Z,10
2023-01-25T12:23:50.939Z,10
2023-01-25T12:24:50.796Z,9
2023-01-25T12:25:50.445Z,10
2023-01-25T12:26:50.456Z,9
2023-01-25T12:27:50.946Z,10
2023-01-25T12:28:50.448Z,10
2023-01-25T12:29:50.488Z,10
2023-01-25T12:30:50.482Z,10
2023-01-25T12:31:50.509Z,11
2023-01-25T12:32:50.469Z,10
2023-01-25T12:33:50.442Z,10
2023-01-25T12:34:50.448Z,11
2023-01-25T12:35:50.452Z,11
2023-01-25T12:36:50.458Z,11
2023-01-25T12:37:50.445Z,11
2023-01-25T12:38:50.459Z,10
2023-01-25T12:39:50.480Z,13
2023-01-25T12:40:50.452Z,12
2023-01-25T12:41:50.450Z,12
2023-01-25T12:42:50.443Z,12
2023-01-25T12:43:50.475Z,11
2023-01-25T12:44:50.460Z,11
2023-01-25T12:45:50.460Z,12
2023-01-25T12:46:50.467Z,11
2023-01-25T12:47:50.446Z,11
2023-01-25T12:48:50.467Z,10
2023-01-25T12:49:50.470Z,12
2023-01-25T12:50:50.453Z,11
2023-01-25T12:51:50.469Z,11
2023-01-25T12:52:50.474Z,11
2023-01-25T12:53:50.456Z,11
2023-01-25T12:54:50.456Z,11
2023-01-25T12:55:50.458Z,10
2023-01-25T12:56:50.455Z,11
2023-01-25T12:57:50.449Z,10
2023-01-25T12:58:50.450Z,8
2023-01-25T12:59:50.447Z,9
2023-01-25T13:00:50.495Z,10
2023-01-25T13:01:50.545Z,11
2023-01-25T13:02:50.474Z,10
2023-01-25T13:03:50.445Z,11
2023-01-25T13:04:50.469Z,11
2023-01-25T13:05:50.460Z,14
2023-01-25T13:06:50.480Z,14
2023-01-25T13:07:50.442Z,16
2023-01-25T13:08:50.445Z,13
2023-01-25T13:09:50.447Z,14
2023-01-25T13:10:50.449Z,13
2023-01-25T13:11:50.457Z,10
2023-01-25T13:12:50.459Z,12
2023-01-25T13:13:50.473Z,12
2023-01-25T13:14:50.465Z,11
2023-01-25T13:15:50.464Z,10
2023-01-25T13:17:01.329Z,10
2023-01-25T13:17:50.449Z,13
2023-01-25T13:18:50.446Z,12
2023-01-25T13:19:50.446Z,10
2023-01-25T13:20:50.441Z,11
2023-01-25T13:21:50.475Z,12
2023-01-25T13:22:50.439Z,11
2023-01-25T13:23:50.492Z,12
2023-01-25T13:24:50.916Z,12
2023-01-25T13:25:50.447Z,12
2023-01-25T13:26:50.467Z,10
2023-01-25T13:27:50.459Z,11
2023-01-25T13:28:50.491Z,11
2023-01-25T13:29:50.448Z,11
2023-01-25T13:30:50.480Z,10
2023-01-25T13:31:52.489Z,12
2023-01-25T13:32:50.439Z,11
2023-01-25T13:33:50.460Z,12
2023-01-25T13:34:50.443Z,13
2023-01-25T13:35:50.449Z,11
2023-01-25T13:36:50.444Z,11
2023-01-25T13:37:50.438Z,13
2023-01-25T13:38:50.445Z,11
2023-01-25T13:39:50.443Z,12
2023-01-25T13:40:50.449Z,12
2023-01-25T13:41:50.454Z,11
2023-01-25T13:42:50.439Z,12
2023-01-25T13:43:50.441Z,13
2023-01-25T13:44:51.712Z,12
2023-01-25T13:45:50.577Z,13
2023-01-25T13:46:50.449Z,12
2023-01-25T13:47:50.442Z,12
2023-01-25T13:48:50.436Z,9
2023-01-25T13:49:50.436Z,12
2023-01-25T13:50:50.424Z,12
2023-01-25T13:51:50.451Z,11
2023-01-25T13:52:50.441Z,13
2023-01-25T13:53:50.453Z,13
2023-01-25T13:54:50.436Z,12
2023-01-25T13:55:50.447Z,12
2023-01-25T13:56:50.443Z,11
2023-01-25T13:57:50.443Z,12
2023-01-25T13:58:50.439Z,11
2023-01-25T13:59:54.196Z,11
2023-01-25T14:00:50.526Z,11
2023-01-25T14:01:50.497Z,13
2023-01-25T14:02:50.441Z,10
2023-01-25T14:03:50.435Z,11
2023-01-25T14:04:50.483Z,13
2023-01-25T14:05:50.433Z,11
2023-01-25T14:06:50.433Z,11
2023-01-25T14:07:50.434Z,12
2023-01-25T14:08:50.439Z,11
2023-01-25T14:09:50.429Z,11
2023-01-25T14:10:50.479Z,12
2023-01-25T14:11:50.435Z,11
2023-01-25T14:12:50.438Z,11
2023-01-25T14:13:50.435Z,11
2023-01-25T14:14:50.441Z,12
2023-01-25T14:15:50.448Z,12
2023-01-25T14:16:50.439Z,11
2023-01-25T14:17:50.497Z,11
2023-01-25T14:18:50.430Z,12
2023-01-25T14:19:50.453Z,10
2023-01-25T14:20:50.434Z,12
2023-01-25T14:21:50.440Z,13
2023-01-25T14:22:50.470Z,12
2023-01-25T14:23:50.468Z,11
2023-01-25T14:24:56.868Z,11
2023-01-25T14:25:50.538Z,11
2023-01-25T14:26:50.434Z,10
2023-01-25T14:27:50.450Z,13
2023-01-25T14:28:59.431Z,10
2023-01-25T14:29:50.434Z,11
2023-01-25T14:30:50.619Z,13
2023-01-25T14:31:50.453Z,12
2023-01-25T14:32:50.463Z,11
2023-01-25T14:33:50.441Z,12
2023-01-25T14:34:50.440Z,12
2023-01-25T14:35:55.494Z,11
2023-01-25T14:36:50.450Z,12
2023-01-25T14:37:50.428Z,12
2023-01-25T14:38:50.473Z,11
2023-01-25T14:39:50.468Z,11
2023-01-25T14:40:50.505Z,12
2023-01-25T14:42:00.472Z,14
2023-01-25T14:42:50.489Z,13
2023-01-25T14:43:50.434Z,12
2023-01-25T14:44:50.433Z,13